sensor_id;sensor_type;location;lat;lon;timestamp;pressure;altitude;pressure_sealevel;temperature;humidity
62928;BME280;51070;52.236;-0.892;2023-09-18T00:01:19;99443.70;;;18.36;100.00
62928;BME280;51070;52.236;-0.892;2023-09-18T00:03:45;99442.63;;;18.38;100.00
62928;BME280;51070;52.236;-0.892;2023-09-18T00:06:10;99438.59;;;18.39;100.00
62928;BME280;51070;52.236;-0.892;2023-09-18T00:08:36;99432.63;;;18.40;100.00
62928;BME280;51070;52.236;-0.892;2023-09-18T00:11:03;99423.88;;;18.40;100.00
62928;BME280;51070;52.236;-0.892;2023-09-18T00:13:29;99417.41;;;18.39;100.00
62928;BME280;51070;52.236;-0.892;2023-09-18T00:15:54;99410.78;;;18.39;100.00
62928;BME280;51070;52.236;-0.892;2023-09-18T00:18:20;99411.13;;;18.39;100.00
62928;BME280;51070;52.236;-0.892;2023-09-18T00:20:46;99408.16;;;18.38;100.00
62928;BME280;51070;52.236;-0.892;2023-09-18T00:23:13;99399.98;;;18.36;100.00
62928;BME280;51070;52.236;-0.892;2023-09-18T00:25:40;99387.98;;;18.34;100.00
62928;BME280;51070;52.236;-0.892;2023-09-18T00:28:08;99384.10;;;18.35;100.00
62928;BME280;51070;52.236;-0.892;2023-09-18T00:30:33;99381.30;;;18.35;100.00
62928;BME280;51070;52.236;-0.892;2023-09-18T00:32:59;99378.73;;;18.32;100.00
62928;BME280;51070;52.236;-0.892;2023-09-18T00:35:24;99370.58;;;18.30;100.00
62928;BME280;51070;52.236;-0.892;2023-09-18T00:37:50;99366.03;;;18.30;100.00
62928;BME280;51070;52.236;-0.892;2023-09-18T00:40:15;99351.67;;;18.30;100.00
62928;BME280;51070;52.236;-0.892;2023-09-18T00:42:41;99340.80;;;18.31;100.00
62928;BME280;51070;52.236;-0.892;2023-09-18T00:45:06;99331.50;;;18.33;100.00
62928;BME280;51070;52.236;-0.892;2023-09-18T00:47:33;99324.85;;;18.34;100.00
62928;BME280;51070;52.236;-0.892;2023-09-18T00:49:58;99321.65;;;18.35;100.00
62928;BME280;51070;52.236;-0.892;2023-09-18T00:52:24;99331.59;;;18.36;100.00
62928;BME280;51070;52.236;-0.892;2023-09-18T00:54:50;99333.18;;;18.36;100.00
62928;BME280;51070;52.236;-0.892;2023-09-18T00:57:16;99332.01;;;18.35;100.00
62928;BME280;51070;52.236;-0.892;2023-09-18T00:59:41;99329.41;;;18.33;100.00
62928;BME280;51070;52.236;-0.892;2023-09-18T01:02:07;99328.63;;;18.28;100.00
62928;BME280;51070;52.236;-0.892;2023-09-18T01:04:33;99325.60;;;18.22;100.00
62928;BME280;51070;52.236;-0.892;2023-09-18T01:07:02;99323.80;;;18.17;100.00
62928;BME280;51070;52.236;-0.892;2023-09-18T01:09:33;99320.91;;;18.13;100.00
62928;BME280;51070;52.236;-0.892;2023-09-18T01:17:09;99306.40;;;18.03;100.00
62928;BME280;51070;52.236;-0.892;2023-09-18T01:19:45;99299.10;;;18.02;100.00
62928;BME280;51070;52.236;-0.892;2023-09-18T01:22:15;99294.94;;;18.01;100.00
62928;BME280;51070;52.236;-0.892;2023-09-18T01:24:44;99292.14;;;18.01;100.00
62928;BME280;51070;52.236;-0.892;2023-09-18T01:27:11;99286.55;;;18.00;100.00
62928;BME280;51070;52.236;-0.892;2023-09-18T01:29:38;99277.83;;;18.00;100.00
62928;BME280;51070;52.236;-0.892;2023-09-18T01:32:03;99280.48;;;17.98;100.00
62928;BME280;51070;52.236;-0.892;2023-09-18T01:34:30;99284.93;;;17.94;100.00
62928;BME280;51070;52.236;-0.892;2023-09-18T01:36:58;99280.86;;;17.88;100.00
62928;BME280;51070;52.236;-0.892;2023-09-18T01:39:25;99277.98;;;17.83;100.00
62928;BME280;51070;52.236;-0.892;2023-09-18T01:41:52;99270.71;;;17.81;100.00
62928;BME280;51070;52.236;-0.892;2023-09-18T01:44:17;99272.13;;;17.80;100.00
62928;BME280;51070;52.236;-0.892;2023-09-18T01:46:43;99268.81;;;17.79;100.00
62928;BME280;51070;52.236;-0.892;2023-09-18T01:49:09;99266.90;;;17.79;100.00
62928;BME280;51070;52.236;-0.892;2023-09-18T01:51:34;99261.66;;;17.79;100.00
62928;BME280;51070;52.236;-0.892;2023-09-18T01:54:00;99256.44;;;17.77;100.00
62928;BME280;51070;52.236;-0.892;2023-09-18T01:56:25;99250.05;;;17.75;100.00
62928;BME280;51070;52.236;-0.892;2023-09-18T01:58:50;99242.39;;;17.72;100.00
62928;BME280;51070;52.236;-0.892;2023-09-18T02:01:15;99232.48;;;17.70;100.00
62928;BME280;51070;52.236;-0.892;2023-09-18T02:03:41;99232.16;;;17.69;100.00
62928;BME280;51070;52.236;-0.892;2023-09-18T02:06:07;99227.29;;;17.68;100.00
62928;BME280;51070;52.236;-0.892;2023-09-18T02:08:32;99224.48;;;17.69;100.00
62928;BME280;51070;52.236;-0.892;2023-09-18T02:10:57;99219.90;;;17.71;100.00
62928;BME280;51070;52.236;-0.892;2023-09-18T02:13:23;99211.45;;;17.73;100.00
62928;BME280;51070;52.236;-0.892;2023-09-18T02:15:48;99211.96;;;17.74;100.00
62928;BME280;51070;52.236;-0.892;2023-09-18T02:18:14;99204.61;;;17.75;100.00
62928;BME280;51070;52.236;-0.892;2023-09-18T02:20:41;99196.21;;;17.75;100.00
62928;BME280;51070;52.236;-0.892;2023-09-18T02:23:06;99191.87;;;17.75;100.00
62928;BME280;51070;52.236;-0.892;2023-09-18T02:25:32;99183.48;;;17.74;100.00
62928;BME280;51070;52.236;-0.892;2023-09-18T02:27:57;99183.67;;;17.73;100.00
62928;BME280;51070;52.236;-0.892;2023-09-18T02:30:22;99175.30;;;17.73;100.00
62928;BME280;51070;52.236;-0.892;2023-09-18T02:32:47;99165.92;;;17.70;100.00
62928;BME280;51070;52.236;-0.892;2023-09-18T02:35:12;99165.14;;;17.66;100.00
62928;BME280;51070;52.236;-0.892;2023-09-18T02:37:38;99152.27;;;17.63;100.00
62928;BME280;51070;52.236;-0.892;2023-09-18T02:40:03;99144.45;;;17.61;100.00
62928;BME280;51070;52.236;-0.892;2023-09-18T02:42:30;99131.35;;;17.60;100.00
62928;BME280;51070;52.236;-0.892;2023-09-18T02:44:55;99121.92;;;17.60;100.00
62928;BME280;51070;52.236;-0.892;2023-09-18T02:47:20;99112.00;;;17.58;100.00
62928;BME280;51070;52.236;-0.892;2023-09-18T02:49:46;99103.13;;;17.56;100.00
62928;BME280;51070;52.236;-0.892;2023-09-18T02:52:11;99099.85;;;17.54;100.00
62928;BME280;51070;52.236;-0.892;2023-09-18T02:54:37;99096.75;;;17.53;100.00
62928;BME280;51070;52.236;-0.892;2023-09-18T02:57:02;99100.27;;;17.51;100.00
62928;BME280;51070;52.236;-0.892;2023-09-18T02:59:27;99107.08;;;17.51;100.00
62928;BME280;51070;52.236;-0.892;2023-09-18T03:01:52;99103.77;;;17.51;100.00
62928;BME280;51070;52.236;-0.892;2023-09-18T03:04:18;99104.65;;;17.50;100.00
62928;BME280;51070;52.236;-0.892;2023-09-18T03:06:43;99107.48;;;17.49;100.00
62928;BME280;51070;52.236;-0.892;2023-09-18T03:09:09;99105.98;;;17.46;100.00
62928;BME280;51070;52.236;-0.892;2023-09-18T03:11:34;99116.81;;;17.45;100.00
62928;BME280;51070;52.236;-0.892;2023-09-18T03:14:00;99127.33;;;17.44;100.00
62928;BME280;51070;52.236;-0.892;2023-09-18T03:16:25;99129.10;;;17.42;100.00
62928;BME280;51070;52.236;-0.892;2023-09-18T03:18:50;99121.83;;;17.39;100.00
62928;BME280;51070;52.236;-0.892;2023-09-18T03:21:15;99120.36;;;17.35;100.00
62928;BME280;51070;52.236;-0.892;2023-09-18T03:23:41;99117.30;;;17.30;100.00
62928;BME280;51070;52.236;-0.892;2023-09-18T03:26:06;99119.82;;;17.27;100.00
62928;BME280;51070;52.236;-0.892;2023-09-18T03:28:31;99117.25;;;17.24;100.00
62928;BME280;51070;52.236;-0.892;2023-09-18T03:31:00;99112.80;;;17.20;100.00
62928;BME280;51070;52.236;-0.892;2023-09-18T03:33:25;99109.34;;;17.18;100.00
62928;BME280;51070;52.236;-0.892;2023-09-18T03:35:51;99118.10;;;17.16;100.00
62928;BME280;51070;52.236;-0.892;2023-09-18T03:38:19;99131.46;;;17.12;100.00
62928;BME280;51070;52.236;-0.892;2023-09-18T03:40:45;99125.31;;;17.04;100.00
62928;BME280;51070;52.236;-0.892;2023-09-18T03:43:10;99116.21;;;16.97;100.00
62928;BME280;51070;52.236;-0.892;2023-09-18T03:45:37;99106.00;;;16.93;100.00
62928;BME280;51070;52.236;-0.892;2023-09-18T03:48:03;99107.09;;;16.90;100.00
62928;BME280;51070;52.236;-0.892;2023-09-18T03:50:28;99122.84;;;16.88;100.00
62928;BME280;51070;52.236;-0.892;2023-09-18T03:52:53;99119.45;;;16.83;100.00
62928;BME280;51070;52.236;-0.892;2023-09-18T03:55:19;99125.80;;;16.79;100.00
62928;BME280;51070;52.236;-0.892;2023-09-18T03:57:44;99120.96;;;16.76;100.00
62928;BME280;51070;52.236;-0.892;2023-09-18T04:00:12;99131.61;;;16.76;100.00
62928;BME280;51070;52.236;-0.892;2023-09-18T04:02:38;99132.23;;;16.71;100.00
62928;BME280;51070;52.236;-0.892;2023-09-18T04:05:04;99118.71;;;16.66;100.00
62928;BME280;51070;52.236;-0.892;2023-09-18T04:07:30;99124.52;;;16.63;100.00
62928;BME280;51070;52.236;-0.892;2023-09-18T04:09:56;99124.92;;;16.59;100.00
62928;BME280;51070;52.236;-0.892;2023-09-18T04:12:21;99124.97;;;16.55;100.00
62928;BME280;51070;52.236;-0.892;2023-09-18T04:14:47;99123.95;;;16.53;100.00
62928;BME280;51070;52.236;-0.892;2023-09-18T04:17:12;99126.64;;;16.50;100.00
62928;BME280;51070;52.236;-0.892;2023-09-18T04:19:37;99127.77;;;16.46;100.00
62928;BME280;51070;52.236;-0.892;2023-09-18T04:22:03;99136.49;;;16.45;100.00
62928;BME280;51070;52.236;-0.892;2023-09-18T04:24:28;99131.81;;;16.42;100.00
62928;BME280;51070;52.236;-0.892;2023-09-18T04:26:54;99117.58;;;16.39;100.00
62928;BME280;51070;52.236;-0.892;2023-09-18T04:29:19;99103.50;;;16.36;100.00
62928;BME280;51070;52.236;-0.892;2023-09-18T04:31:44;99089.25;;;16.34;100.00
62928;BME280;51070;52.236;-0.892;2023-09-18T04:34:10;99088.92;;;16.32;100.00
62928;BME280;51070;52.236;-0.892;2023-09-18T04:36:36;99084.78;;;16.30;100.00
62928;BME280;51070;52.236;-0.892;2023-09-18T04:39:02;99090.73;;;16.30;100.00
62928;BME280;51070;52.236;-0.892;2023-09-18T04:41:29;99093.30;;;16.30;100.00
62928;BME280;51070;52.236;-0.892;2023-09-18T04:43:55;99097.46;;;16.32;100.00
62928;BME280;51070;52.236;-0.892;2023-09-18T04:46:20;99095.33;;;16.35;100.00
62928;BME280;51070;52.236;-0.892;2023-09-18T04:48:45;99092.50;;;16.37;100.00
62928;BME280;51070;52.236;-0.892;2023-09-18T04:51:10;99087.95;;;16.39;100.00
62928;BME280;51070;52.236;-0.892;2023-09-18T04:53:37;99084.41;;;16.41;100.00
62928;BME280;51070;52.236;-0.892;2023-09-18T04:56:02;99082.51;;;16.41;100.00
62928;BME280;51070;52.236;-0.892;2023-09-18T04:58:28;99092.30;;;16.39;100.00
62928;BME280;51070;52.236;-0.892;2023-09-18T05:00:54;99095.28;;;16.38;100.00
62928;BME280;51070;52.236;-0.892;2023-09-18T05:03:20;99086.73;;;16.37;100.00
62928;BME280;51070;52.236;-0.892;2023-09-18T05:05:46;99086.89;;;16.39;100.00
62928;BME280;51070;52.236;-0.892;2023-09-18T05:08:11;99083.91;;;16.41;100.00
62928;BME280;51070;52.236;-0.892;2023-09-18T05:10:36;99083.25;;;16.37;100.00
62928;BME280;51070;52.236;-0.892;2023-09-18T05:13:01;99087.65;;;16.35;100.00
62928;BME280;51070;52.236;-0.892;2023-09-18T05:15:27;99087.52;;;16.33;100.00
62928;BME280;51070;52.236;-0.892;2023-09-18T05:17:55;99088.43;;;16.30;100.00
62928;BME280;51070;52.236;-0.892;2023-09-18T05:20:23;99092.14;;;16.28;100.00
62928;BME280;51070;52.236;-0.892;2023-09-18T05:22:51;99093.56;;;16.26;100.00
62928;BME280;51070;52.236;-0.892;2023-09-18T05:25:20;99096.44;;;16.21;100.00
62928;BME280;51070;52.236;-0.892;2023-09-18T05:27:47;99096.33;;;16.17;100.00
62928;BME280;51070;52.236;-0.892;2023-09-18T05:30:18;99091.46;;;16.15;100.00
62928;BME280;51070;52.236;-0.892;2023-09-18T05:32:45;99091.66;;;16.14;100.00
62928;BME280;51070;52.236;-0.892;2023-09-18T05:35:12;99092.21;;;16.13;100.00
62928;BME280;51070;52.236;-0.892;2023-09-18T05:37:38;99094.16;;;16.11;100.00
62928;BME280;51070;52.236;-0.892;2023-09-18T05:40:04;99089.15;;;16.08;100.00
62928;BME280;51070;52.236;-0.892;2023-09-18T05:42:30;99095.46;;;16.05;100.00
62928;BME280;51070;52.236;-0.892;2023-09-18T05:44:56;99092.04;;;16.03;100.00
62928;BME280;51070;52.236;-0.892;2023-09-18T05:47:21;99093.63;;;16.01;100.00
62928;BME280;51070;52.236;-0.892;2023-09-18T05:49:47;99093.09;;;16.02;100.00
62928;BME280;51070;52.236;-0.892;2023-09-18T05:52:12;99095.71;;;16.01;100.00
62928;BME280;51070;52.236;-0.892;2023-09-18T05:54:37;99094.84;;;16.02;100.00
62928;BME280;51070;52.236;-0.892;2023-09-18T05:57:03;99092.17;;;16.04;100.00
62928;BME280;51070;52.236;-0.892;2023-09-18T05:59:28;99096.52;;;16.05;100.00
62928;BME280;51070;52.236;-0.892;2023-09-18T06:01:54;99095.98;;;16.06;100.00
62928;BME280;51070;52.236;-0.892;2023-09-18T06:04:19;99097.89;;;16.07;100.00
62928;BME280;51070;52.236;-0.892;2023-09-18T06:06:44;99095.43;;;16.08;100.00
62928;BME280;51070;52.236;-0.892;2023-09-18T06:09:10;99096.48;;;16.08;100.00
62928;BME280;51070;52.236;-0.892;2023-09-18T06:11:35;99097.52;;;16.08;100.00
62928;BME280;51070;52.236;-0.892;2023-09-18T06:14:00;99092.84;;;16.07;100.00
62928;BME280;51070;52.236;-0.892;2023-09-18T06:16:26;99093.88;;;16.07;100.00
62928;BME280;51070;52.236;-0.892;2023-09-18T06:18:51;99094.27;;;16.05;100.00
62928;BME280;51070;52.236;-0.892;2023-09-18T06:21:16;99094.61;;;16.04;100.00
62928;BME280;51070;52.236;-0.892;2023-09-18T06:23:42;99094.77;;;16.05;100.00
62928;BME280;51070;52.236;-0.892;2023-09-18T06:26:07;99096.16;;;16.06;100.00
62928;BME280;51070;52.236;-0.892;2023-09-18T06:28:32;99098.25;;;16.06;100.00
62928;BME280;51070;52.236;-0.892;2023-09-18T06:30:57;99103.14;;;16.04;100.00
62928;BME280;51070;52.236;-0.892;2023-09-18T06:33:23;99109.14;;;16.01;100.00
62928;BME280;51070;52.236;-0.892;2023-09-18T06:35:48;99115.44;;;15.98;100.00
62928;BME280;51070;52.236;-0.892;2023-09-18T06:38:13;99114.79;;;15.95;100.00
62928;BME280;51070;52.236;-0.892;2023-09-18T06:40:40;99112.73;;;15.93;100.00
62928;BME280;51070;52.236;-0.892;2023-09-18T06:43:05;99113.79;;;15.93;100.00
62928;BME280;51070;52.236;-0.892;2023-09-18T06:45:31;99114.09;;;15.95;100.00
62928;BME280;51070;52.236;-0.892;2023-09-18T06:47:58;99113.21;;;15.96;100.00
62928;BME280;51070;52.236;-0.892;2023-09-18T06:50:23;99111.47;;;15.97;100.00
62928;BME280;51070;52.236;-0.892;2023-09-18T06:52:49;99114.55;;;15.99;100.00
62928;BME280;51070;52.236;-0.892;2023-09-18T06:55:14;99113.45;;;16.04;100.00
62928;BME280;51070;52.236;-0.892;2023-09-18T06:57:42;99113.31;;;16.12;100.00
62928;BME280;51070;52.236;-0.892;2023-09-18T07:00:07;99113.67;;;16.22;100.00
62928;BME280;51070;52.236;-0.892;2023-09-18T07:02:33;99113.19;;;16.30;100.00
62928;BME280;51070;52.236;-0.892;2023-09-18T07:04:58;99111.02;;;16.35;100.00
62928;BME280;51070;52.236;-0.892;2023-09-18T07:07:23;99110.39;;;16.41;100.00
62928;BME280;51070;52.236;-0.892;2023-09-18T07:09:51;99107.36;;;16.45;100.00
62928;BME280;51070;52.236;-0.892;2023-09-18T07:12:16;99103.40;;;16.53;100.00
62928;BME280;51070;52.236;-0.892;2023-09-18T07:14:43;99101.89;;;16.60;100.00
62928;BME280;51070;52.236;-0.892;2023-09-18T07:17:09;99101.07;;;16.67;100.00
62928;BME280;51070;52.236;-0.892;2023-09-18T07:19:35;99099.89;;;16.75;100.00
62928;BME280;51070;52.236;-0.892;2023-09-18T07:22:00;99100.13;;;16.81;100.00
62928;BME280;51070;52.236;-0.892;2023-09-18T07:24:26;99102.34;;;16.84;100.00
62928;BME280;51070;52.236;-0.892;2023-09-18T07:26:51;99099.83;;;16.87;100.00
62928;BME280;51070;52.236;-0.892;2023-09-18T07:29:17;99098.77;;;16.88;100.00
62928;BME280;51070;52.236;-0.892;2023-09-18T07:31:42;99096.08;;;16.91;100.00
62928;BME280;51070;52.236;-0.892;2023-09-18T07:34:08;99093.61;;;16.93;100.00
62928;BME280;51070;52.236;-0.892;2023-09-18T07:36:33;99093.06;;;16.94;100.00
62928;BME280;51070;52.236;-0.892;2023-09-18T07:38:59;99089.16;;;16.97;100.00
62928;BME280;51070;52.236;-0.892;2023-09-18T07:41:24;99088.70;;;17.03;100.00
62928;BME280;51070;52.236;-0.892;2023-09-18T07:43:50;99089.45;;;17.08;100.00
62928;BME280;51070;52.236;-0.892;2023-09-18T07:46:15;99086.15;;;17.16;100.00
62928;BME280;51070;52.236;-0.892;2023-09-18T07:48:41;99083.48;;;17.19;100.00
62928;BME280;51070;52.236;-0.892;2023-09-18T07:51:06;99085.22;;;17.20;100.00
62928;BME280;51070;52.236;-0.892;2023-09-18T07:53:31;99081.89;;;17.20;100.00
62928;BME280;51070;52.236;-0.892;2023-09-18T07:55:57;99087.97;;;17.22;100.00
62928;BME280;51070;52.236;-0.892;2023-09-18T07:58:24;99086.09;;;17.29;100.00
62928;BME280;51070;52.236;-0.892;2023-09-18T08:00:52;99086.20;;;17.39;100.00
62928;BME280;51070;52.236;-0.892;2023-09-18T08:03:19;99086.14;;;17.50;100.00
62928;BME280;51070;52.236;-0.892;2023-09-18T08:05:44;99088.01;;;17.62;99.52
62928;BME280;51070;52.236;-0.892;2023-09-18T08:08:10;99087.80;;;17.72;98.39
62928;BME280;51070;52.236;-0.892;2023-09-18T08:10:38;99086.95;;;17.93;97.88
62928;BME280;51070;52.236;-0.892;2023-09-18T08:13:04;99087.11;;;18.16;96.65
62928;BME280;51070;52.236;-0.892;2023-09-18T08:15:29;99080.65;;;18.29;95.15
62928;BME280;51070;52.236;-0.892;2023-09-18T08:17:55;99082.45;;;18.34;94.40
62928;BME280;51070;52.236;-0.892;2023-09-18T08:20:20;99081.64;;;18.39;93.38
62928;BME280;51070;52.236;-0.892;2023-09-18T08:22:45;99087.04;;;18.39;92.01
62928;BME280;51070;52.236;-0.892;2023-09-18T08:25:13;99087.88;;;18.41;91.57
62928;BME280;51070;52.236;-0.892;2023-09-18T08:27:39;99083.65;;;18.41;91.17
62928;BME280;51070;52.236;-0.892;2023-09-18T08:30:07;99084.31;;;18.43;90.24
62928;BME280;51070;52.236;-0.892;2023-09-18T08:32:35;99088.10;;;18.46;90.14
62928;BME280;51070;52.236;-0.892;2023-09-18T08:35:00;99083.46;;;18.49;89.28
62928;BME280;51070;52.236;-0.892;2023-09-18T08:37:27;99074.15;;;18.51;88.64
62928;BME280;51070;52.236;-0.892;2023-09-18T08:39:52;99068.21;;;18.51;89.03
62928;BME280;51070;52.236;-0.892;2023-09-18T08:42:17;99064.06;;;19.01;87.21
62928;BME280;51070;52.236;-0.892;2023-09-18T08:44:45;99056.36;;;20.66;82.37
62928;BME280;51070;52.236;-0.892;2023-09-18T08:47:14;99052.84;;;22.40;73.34
62928;BME280;51070;52.236;-0.892;2023-09-18T08:49:40;99044.14;;;23.79;66.89
62928;BME280;51070;52.236;-0.892;2023-09-18T08:52:06;99046.73;;;24.95;61.83
62928;BME280;51070;52.236;-0.892;2023-09-18T08:54:32;99047.77;;;25.87;57.26
62928;BME280;51070;52.236;-0.892;2023-09-18T08:56:58;99044.77;;;26.62;56.29
62928;BME280;51070;52.236;-0.892;2023-09-18T08:59:23;99042.55;;;27.42;52.49
62928;BME280;51070;52.236;-0.892;2023-09-18T09:01:50;99044.05;;;28.06;51.52
62928;BME280;51070;52.236;-0.892;2023-09-18T09:04:15;99043.05;;;28.56;48.00
62928;BME280;51070;52.236;-0.892;2023-09-18T09:06:41;99041.55;;;28.88;46.76
62928;BME280;51070;52.236;-0.892;2023-09-18T09:09:06;99037.74;;;29.32;46.42
62928;BME280;51070;52.236;-0.892;2023-09-18T09:11:33;99041.25;;;29.60;43.69
62928;BME280;51070;52.236;-0.892;2023-09-18T09:14:08;99037.55;;;29.52;42.85
62928;BME280;51070;52.236;-0.892;2023-09-18T09:16:38;99039.40;;;29.14;43.26
62928;BME280;51070;52.236;-0.892;2023-09-18T09:19:03;99041.27;;;28.74;43.81
62928;BME280;51070;52.236;-0.892;2023-09-18T09:21:39;99035.36;;;28.33;45.49
62928;BME280;51070;52.236;-0.892;2023-09-18T09:24:04;99038.49;;;28.18;44.79
62928;BME280;51070;52.236;-0.892;2023-09-18T09:26:30;99041.10;;;27.42;45.74
62928;BME280;51070;52.236;-0.892;2023-09-18T09:28:55;99039.83;;;26.65;47.39
62928;BME280;51070;52.236;-0.892;2023-09-18T09:31:27;99036.44;;;26.68;48.37
62928;BME280;51070;52.236;-0.892;2023-09-18T09:33:52;99036.45;;;27.20;47.51
62928;BME280;51070;52.236;-0.892;2023-09-18T09:36:19;99034.89;;;28.00;46.65
62928;BME280;51070;52.236;-0.892;2023-09-18T09:38:44;99031.65;;;28.36;44.95
62928;BME280;51070;52.236;-0.892;2023-09-18T09:41:12;99029.48;;;27.38;44.36
62928;BME280;51070;52.236;-0.892;2023-09-18T09:43:38;99020.35;;;26.26;46.87
62928;BME280;51070;52.236;-0.892;2023-09-18T09:46:07;99011.63;;;25.59;48.29
62928;BME280;51070;52.236;-0.892;2023-09-18T09:48:39;99010.00;;;26.06;48.05
62928;BME280;51070;52.236;-0.892;2023-09-18T09:51:05;98999.11;;;27.07;47.40
62928;BME280;51070;52.236;-0.892;2023-09-18T09:53:43;98998.98;;;27.65;46.09
62928;BME280;51070;52.236;-0.892;2023-09-18T09:56:10;99004.64;;;27.27;46.14
62928;BME280;51070;52.236;-0.892;2023-09-18T09:58:35;99002.27;;;26.91;45.95
62928;BME280;51070;52.236;-0.892;2023-09-18T10:01:02;98999.38;;;27.01;45.58
62928;BME280;51070;52.236;-0.892;2023-09-18T10:03:28;99004.60;;;27.25;45.04
62928;BME280;51070;52.236;-0.892;2023-09-18T10:05:54;98999.23;;;27.45;45.01
62928;BME280;51070;52.236;-0.892;2023-09-18T10:08:23;99003.95;;;27.35;45.50
62928;BME280;51070;52.236;-0.892;2023-09-18T10:10:50;98999.95;;;27.80;45.41
62928;BME280;51070;52.236;-0.892;2023-09-18T10:15:42;98998.38;;;28.57;42.89
62928;BME280;51070;52.236;-0.892;2023-09-18T10:18:10;98992.48;;;28.70;42.14
62928;BME280;51070;52.236;-0.892;2023-09-18T10:20:42;98988.59;;;28.64;40.93
62928;BME280;51070;52.236;-0.892;2023-09-18T10:23:13;98986.94;;;28.47;41.25
62928;BME280;51070;52.236;-0.892;2023-09-18T10:25:45;98985.50;;;27.71;43.15
62928;BME280;51070;52.236;-0.892;2023-09-18T10:28:10;98984.52;;;26.68;44.28
62928;BME280;51070;52.236;-0.892;2023-09-18T10:30:40;98985.95;;;25.78;45.92
62928;BME280;51070;52.236;-0.892;2023-09-18T10:33:07;98981.81;;;25.13;47.25
62928;BME280;51070;52.236;-0.892;2023-09-18T10:35:33;98972.86;;;24.46;48.53
62928;BME280;51070;52.236;-0.892;2023-09-18T10:38:01;98977.21;;;24.06;49.82
62928;BME280;51070;52.236;-0.892;2023-09-18T10:40:27;98981.09;;;23.66;50.76
62928;BME280;51070;52.236;-0.892;2023-09-18T10:42:54;98974.52;;;23.23;52.13
62928;BME280;51070;52.236;-0.892;2023-09-18T10:45:19;98969.20;;;22.78;53.48
62928;BME280;51070;52.236;-0.892;2023-09-18T10:47:44;98973.58;;;22.34;55.01
62928;BME280;51070;52.236;-0.892;2023-09-18T10:50:11;98978.18;;;22.09;56.44
62928;BME280;51070;52.236;-0.892;2023-09-18T10:52:43;98972.60;;;21.96;57.00
62928;BME280;51070;52.236;-0.892;2023-09-18T10:55:13;98972.54;;;21.92;57.80
62928;BME280;51070;52.236;-0.892;2023-09-18T10:57:52;98975.10;;;21.94;58.17
62928;BME280;51070;52.236;-0.892;2023-09-18T11:00:18;98971.48;;;22.01;58.50
62928;BME280;51070;52.236;-0.892;2023-09-18T11:02:49;98967.69;;;21.95;59.02
62928;BME280;51070;52.236;-0.892;2023-09-18T11:05:14;98971.02;;;21.86;59.41
62928;BME280;51070;52.236;-0.892;2023-09-18T11:08:02;98970.51;;;21.82;59.33
62928;BME280;51070;52.236;-0.892;2023-09-18T11:10:36;98970.96;;;21.75;59.75
62928;BME280;51070;52.236;-0.892;2023-09-18T11:13:05;98970.41;;;21.54;60.36
62928;BME280;51070;52.236;-0.892;2023-09-18T11:15:31;98970.60;;;21.17;61.60
62928;BME280;51070;52.236;-0.892;2023-09-18T11:18:01;98963.96;;;20.79;62.95
62928;BME280;51070;52.236;-0.892;2023-09-18T11:20:28;98964.64;;;20.52;64.02
62928;BME280;51070;52.236;-0.892;2023-09-18T11:22:57;98961.38;;;20.29;65.31
62928;BME280;51070;52.236;-0.892;2023-09-18T11:28:01;98974.11;;;20.05;68.00
62928;BME280;51070;52.236;-0.892;2023-09-18T11:30:28;98971.69;;;19.94;70.57
62928;BME280;51070;52.236;-0.892;2023-09-18T11:32:53;98964.27;;;19.90;71.72
62928;BME280;51070;52.236;-0.892;2023-09-18T11:35:20;98964.61;;;19.91;73.24
62928;BME280;51070;52.236;-0.892;2023-09-18T11:37:45;98971.80;;;19.90;73.96
62928;BME280;51070;52.236;-0.892;2023-09-18T11:40:30;98965.58;;;19.83;74.54
62928;BME280;51070;52.236;-0.892;2023-09-18T11:43:24;98966.25;;;19.84;75.62
62928;BME280;51070;52.236;-0.892;2023-09-18T11:45:51;98960.79;;;19.80;75.82
62928;BME280;51070;52.236;-0.892;2023-09-18T11:48:17;98961.44;;;19.81;75.92
62928;BME280;51070;52.236;-0.892;2023-09-18T11:50:43;98965.56;;;19.83;76.03
62928;BME280;51070;52.236;-0.892;2023-09-18T11:53:11;98964.59;;;19.81;76.35
62928;BME280;51070;52.236;-0.892;2023-09-18T11:55:38;98963.72;;;19.81;76.28
62928;BME280;51070;52.236;-0.892;2023-09-18T11:58:04;98967.39;;;19.81;76.78
62928;BME280;51070;52.236;-0.892;2023-09-18T12:00:30;98964.34;;;19.78;76.78
62928;BME280;51070;52.236;-0.892;2023-09-18T12:02:56;98963.75;;;19.75;76.61
62928;BME280;51070;52.236;-0.892;2023-09-18T12:05:23;98967.64;;;19.74;76.58
62928;BME280;51070;52.236;-0.892;2023-09-18T12:07:51;98969.73;;;19.68;76.37
62928;BME280;51070;52.236;-0.892;2023-09-18T12:10:17;98967.86;;;19.61;76.12
62928;BME280;51070;52.236;-0.892;2023-09-18T12:12:43;98970.11;;;19.57;76.20
62928;BME280;51070;52.236;-0.892;2023-09-18T12:15:17;98971.11;;;19.53;76.30
62928;BME280;51070;52.236;-0.892;2023-09-18T12:17:42;98972.66;;;19.59;76.33
62928;BME280;51070;52.236;-0.892;2023-09-18T12:20:14;98972.54;;;19.74;75.60
62928;BME280;51070;52.236;-0.892;2023-09-18T12:22:41;98972.08;;;20.03;75.19
62928;BME280;51070;52.236;-0.892;2023-09-18T12:25:13;98972.94;;;20.35;73.90
62928;BME280;51070;52.236;-0.892;2023-09-18T12:27:42;98967.55;;;20.68;73.33
62928;BME280;51070;52.236;-0.892;2023-09-18T12:30:08;98970.49;;;20.92;72.03
62928;BME280;51070;52.236;-0.892;2023-09-18T12:32:37;98977.87;;;21.06;71.15
62928;BME280;51070;52.236;-0.892;2023-09-18T12:35:04;98987.56;;;21.20;69.64
62928;BME280;51070;52.236;-0.892;2023-09-18T12:37:35;98978.02;;;21.26;68.06
62928;BME280;51070;52.236;-0.892;2023-09-18T12:40:04;98983.14;;;21.21;67.52
62928;BME280;51070;52.236;-0.892;2023-09-18T12:42:36;98988.80;;;21.14;66.72
62928;BME280;51070;52.236;-0.892;2023-09-18T12:45:01;98984.48;;;21.13;66.61
62928;BME280;51070;52.236;-0.892;2023-09-18T12:47:27;98987.50;;;21.21;66.51
62928;BME280;51070;52.236;-0.892;2023-09-18T12:49:53;98988.42;;;21.29;66.25